KLOL

Details ICAO KLOL
Name Derby Fld
Region United States
Timezone America/Los_Angeles (UTC-7.0)
Plans Departing 4
Arriving 5
Stats Elevation 3,904 ft / 1,190 m (AMSL)
Location 40.066343° -118.564959°
Runways 2
Magnetic Variation 13.218° E
Sunrise 2018-05-22 12:34:25 UTC / 2018-05-22 05:34:25 Local
Sunset 2018-05-23 03:10:20 UTC / 2018-05-22 20:10:20 Local
Advertisement - Login to hide

Runways

ID Width Length Bearing (true) Bearing (mag) Surface Threshold Offset Overrun Length
01 75 ft / 23 m 5,532 ft / 1,686 m 30.32° 17.10° Asphalt 0 ft / 0 m 0 ft / 0 m
07 75 ft / 23 m 4,965 ft / 1,513 m 90.41° 77.19° Asphalt 0 ft / 0 m 0 ft / 0 m
19 75 ft / 23 m 5,532 ft / 1,686 m 210.33° 197.11° Asphalt 0 ft / 0 m 0 ft / 0 m
25 75 ft / 23 m 4,965 ft / 1,513 m 270.43° 257.21° Asphalt 121 ft / 37 m 0 ft / 0 m

Map

Weather


0- 5 10 15 20 25 30 35+ Temperature / ° C

Clouds and Precipitation
Forecast for 2018-05-23 06:00 UTC. Updated 2 hours ago

Ground ~20,000 ft ~40,000 ft Winds

METAR

KLOL 230653Z AUTO 00000KT 10SM OVC095 18/08 A2987 RMK AO2 SLP087 T01780078

TAF

Not found

Frequencies

Recorded 120.67 MHz ASOS
Unicom 122.80 MHz CTAF/UNICOM
Warning: Do not use this data for real-world aviation or navigation. No guarantee of current accuracy is given.